Time;durP1;ratioP1;P1;durP2;ratioP2;P2;SDS_P1;SDS_P2;PMS_P1;PMS_P2;Temp;Humidity;BMP_temperature;BMP_pressure;BME280_temperature;BME280_humidity;BME280_pressure;Samples;Min_cycle;Max_cycle;Signal;HPM_P1;HPM_P2
2021/01/28 06:38:41;;;;;;;79.25;25.23;;;;;;;;;;5089493;28;20911;-70
2021/01/28 06:41:09;;;;;;;57.17;23.35;;;;;;;;;;5071305;28;20031;-70
2021/01/28 06:43:43;;;;;;;70.70;25.33;;;;;;;;;;5071246;28;20111;-70
2021/01/28 06:46:26;;;;;;;105.55;34.00;;;;;;;;;;5070115;28;20031;-68
2021/01/28 06:48:57;;;;;;;75.55;30.10;;;;;;;;;;5034784;28;20108;-68
2021/01/28 06:51:31;;;;;;;65.60;23.30;;;;;;;;;;5069249;28;20021;-68
2021/01/28 06:54:05;;;;;;;57.13;21.50;;;;;;;;;;5051313;28;20070;-68
2021/01/28 06:56:38;;;;;;;54.78;22.58;;;;;;;;;;5051025;28;20066;-70
2021/01/28 06:59:13;;;;;;;66.93;27.05;;;;;;;;;;5043596;28;20036;-68
2021/01/28 07:01:44;;;;;;;76.07;28.55;;;;;;;;;;5060724;28;20020;-68
2021/01/28 07:04:10;;;;;;;84.72;31.35;;;;;;;;;;5078553;28;20031;-68
2021/01/28 07:06:40;;;;;;;72.35;28.67;;;;;;;;;;5055407;28;20016;-68
2021/01/28 07:09:15;;;;;;;59.30;25.90;;;;;;;;;;5054954;28;20060;-67
2021/01/28 07:11:42;;;;;;;59.75;27.67;;;;;;;;;;5076227;28;20028;-68
2021/01/28 07:14:10;;;;;;;57.55;25.42;;;;;;;;;;5069770;28;20400;-67
2021/01/28 07:16:41;;;;;;;48.63;22.43;;;;;;;;;;5087572;28;20024;-68
2021/01/28 07:19:09;;;;;;;75.18;31.23;;;;;;;;;;5088816;28;20257;-67
2021/01/28 07:21:37;;;;;;;45.23;21.03;;;;;;;;;;5076400;28;20031;-66
2021/01/28 07:24:06;;;;;;;61.17;28.17;;;;;;;;;;5082855;28;20273;-66
2021/01/28 07:26:41;;;;;;;65.80;31.67;;;;;;;;;;5081391;28;20456;-66
2021/01/28 07:29:16;;;;;;;67.90;31.00;;;;;;;;;;5090990;28;20472;-67
2021/01/28 07:31:43;;;;;;;74.45;32.03;;;;;;;;;;5066477;28;20024;-67
2021/01/28 07:34:11;;;;;;;65.45;29.13;;;;;;;;;;5066965;28;20111;-65
2021/01/28 07:36:37;;;;;;;65.60;28.75;;;;;;;;;;5079285;28;20051;-67
2021/01/28 07:39:04;;;;;;;61.42;26.95;;;;;;;;;;5064549;28;20187;-67
2021/01/28 07:41:37;;;;;;;65.45;29.25;;;;;;;;;;5066389;28;20036;-68
2021/01/28 07:44:12;;;;;;;63.80;28.55;;;;;;;;;;5063056;28;20050;-68
2021/01/28 07:46:39;;;;;;;75.43;30.35;;;;;;;;;;5095153;28;20384;-68
2021/01/28 07:49:08;;;;;;;66.57;30.30;;;;;;;;;;5071714;28;20031;-68
2021/01/28 07:51:35;;;;;;;73.55;29.63;;;;;;;;;;5066978;28;20024;-69
2021/01/28 07:54:02;;;;;;;63.20;28.23;;;;;;;;;;5049644;28;20122;-68
2021/01/28 07:56:44;;;;;;;74.05;29.40;;;;;;;;;;5069189;28;20064;-67
2021/01/28 07:59:11;;;;;;;63.80;28.05;;;;;;;;;;5054428;28;20053;-67
2021/01/28 08:01:39;;;;;;;63.13;27.88;;;;;;;;;;5058572;28;20040;-69
2021/01/28 08:04:06;;;;;;;66.57;31.33;;;;;;;;;;5046847;28;20016;-67
2021/01/28 08:06:32;;;;;;;83.07;32.17;;;;;;;;;;5069385;28;20116;-67
2021/01/28 08:09:03;;;;;;;89.35;35.35;;;;;;;;;;5046757;28;20032;-65
2021/01/28 08:11:28;;;;;;;89.40;33.55;;;;;;;;;;5062275;28;20020;-67
2021/01/28 08:13:55;;;;;;;82.32;32.28;;;;;;;;;;5075183;28;20066;-67
2021/01/28 08:16:20;;;;;;;77.50;31.10;;;;;;;;;;5060638;28;20471;-68
2021/01/28 08:18:59;;;;;;;76.80;28.88;;;;;;;;;;5053670;28;20016;-68
2021/01/28 08:21:26;;;;;;;70.15;28.40;;;;;;;;;;5060070;28;20025;-67
2021/01/28 08:23:52;;;;;;;72.60;29.35;;;;;;;;;;5070473;28;20056;-67
2021/01/28 08:26:27;;;;;;;62.95;26.42;;;;;;;;;;5054588;28;20063;-68
2021/01/28 08:29:02;;;;;;;61.85;27.30;;;;;;;;;;5057578;28;20020;-68
2021/01/28 08:31:32;;;;;;;54.03;25.08;;;;;;;;;;5064522;28;20031;-68
2021/01/28 08:33:59;;;;;;;63.67;25.40;;;;;;;;;;5078528;28;20111;-67
2021/01/28 08:36:26;;;;;;;85.25;32.58;;;;;;;;;;5075341;28;20482;-66
2021/01/28 08:39:01;;;;;;;76.78;30.58;;;;;;;;;;5022233;28;20017;-69
2021/01/28 08:41:27;;;;;;;66.53;29.63;;;;;;;;;;5072332;28;20372;-68
2021/01/28 08:43:58;;;;;;;62.38;28.83;;;;;;;;;;5078882;28;20111;-69
2021/01/28 08:46:24;;;;;;;72.78;28.55;;;;;;;;;;5077443;28;20033;-66
2021/01/28 08:48:49;;;;;;;59.67;26.08;;;;;;;;;;5068362;28;20265;-67
2021/01/28 08:51:17;;;;;;;61.97;27.48;;;;;;;;;;5061415;28;20033;-67
2021/01/28 08:53:45;;;;;;;54.13;23.85;;;;;;;;;;5033840;28;20027;-67
2021/01/28 08:56:17;;;;;;;57.70;23.48;;;;;;;;;;5045253;28;20067;-68
2021/01/28 08:58:43;;;;;;;61.70;25.45;;;;;;;;;;5045924;28;20016;-68
2021/01/28 09:01:10;;;;;;;66.75;31.98;;;;;;;;;;5068120;28;20418;-67
2021/01/28 09:03:41;;;;;;;58.58;25.40;;;;;;;;;;5063445;28;20016;-67
2021/01/28 09:06:07;;;;;;;62.58;26.98;;;;;;;;;;5066009;28;20016;-67
2021/01/28 09:08:34;;;;;;;72.43;28.58;;;;;;;;;;5065863;28;20025;-66
2021/01/28 09:11:09;;;;;;;77.15;28.23;;;;;;;;;;5069041;28;20112;-68
2021/01/28 09:13:35;;;;;;;81.13;32.50;;;;;;;;;;5075323;28;20017;-68
2021/01/28 09:16:10;;;;;;;68.35;28.73;;;;;;;;;;5057774;28;20048;-67
2021/01/28 09:18:37;;;;;;;64.70;26.50;;;;;;;;;;5088333;28;20342;-66
2021/01/28 09:21:05;;;;;;;67.82;27.98;;;;;;;;;;5070457;28;20495;-67
2021/01/28 09:23:30;;;;;;;64.55;28.77;;;;;;;;;;5073165;28;20016;-67
2021/01/28 09:26:06;;;;;;;68.63;28.80;;;;;;;;;;5059691;28;20082;-67
2021/01/28 09:28:31;;;;;;;69.18;28.85;;;;;;;;;;5076127;28;20024;-68
2021/01/28 09:30:56;;;;;;;56.35;26.48;;;;;;;;;;5086067;28;20016;-66
2021/01/28 09:33:23;;;;;;;110.28;28.17;;;;;;;;;;5080939;28;20055;-69
2021/01/28 09:35:58;;;;;;;58.85;23.83;;;;;;;;;;5078846;28;20111;-67
2021/01/28 09:38:23;;;;;;;54.65;22.83;;;;;;;;;;5026830;28;20052;-69
2021/01/28 09:40:50;;;;;;;55.70;24.02;;;;;;;;;;5024494;28;20029;-67
2021/01/28 09:43:17;;;;;;;53.92;25.40;;;;;;;;;;5045106;28;20600;-64
2021/01/28 09:45:42;;;;;;;61.55;26.35;;;;;;;;;;5040778;28;20032;-70
2021/01/28 09:48:08;;;;;;;66.75;29.15;;;;;;;;;;5026239;28;20041;-70
2021/01/28 09:50:33;;;;;;;60.92;27.77;;;;;;;;;;5036244;28;20371;-65
2021/01/28 09:52:59;;;;;;;63.97;28.85;;;;;;;;;;5034492;28;20034;-64
2021/01/28 09:55:27;;;;;;;61.83;27.50;;;;;;;;;;5040546;28;20025;-65
2021/01/28 09:57:53;;;;;;;59.53;26.85;;;;;;;;;;5055790;28;20036;-64
2021/01/28 10:00:19;;;;;;;64.90;27.98;;;;;;;;;;5046086;28;20022;-64
2021/01/28 10:02:47;;;;;;;58.05;23.75;;;;;;;;;;5057020;28;20025;-72
2021/01/28 10:05:14;;;;;;;46.85;21.92;;;;;;;;;;5023179;28;20029;-72
2021/01/28 10:07:40;;;;;;;56.10;24.90;;;;;;;;;;5034871;28;20040;-72
2021/01/28 10:10:06;;;;;;;57.50;24.52;;;;;;;;;;5022110;28;20022;-60
2021/01/28 10:12:32;;;;;;;48.85;23.45;;;;;;;;;;5045293;28;20509;-64
2021/01/28 10:14:57;;;;;;;48.47;22.50;;;;;;;;;;5027790;28;20022;-61
2021/01/28 10:17:23;;;;;;;43.85;21.27;;;;;;;;;;5049618;28;20052;-61
2021/01/28 10:19:49;;;;;;;44.85;20.80;;;;;;;;;;5033173;28;20797;-61
2021/01/28 10:22:17;;;;;;;52.70;21.63;;;;;;;;;;5032016;28;20029;-62
2021/01/28 10:24:42;;;;;;;51.28;21.75;;;;;;;;;;5034813;28;20021;-61
2021/01/28 10:27:08;;;;;;;51.03;21.40;;;;;;;;;;5043885;28;20073;-61
2021/01/28 10:29:34;;;;;;;41.22;20.50;;;;;;;;;;5040699;28;20535;-59
2021/01/28 10:32:01;;;;;;;55.13;26.73;;;;;;;;;;5035819;28;20033;-61
2021/01/28 10:34:26;;;;;;;42.05;20.48;;;;;;;;;;5029829;28;20553;-61
2021/01/28 10:36:51;;;;;;;36.83;19.45;;;;;;;;;;5047115;28;20124;-61
2021/01/28 10:39:18;;;;;;;44.58;20.02;;;;;;;;;;5037424;28;20129;-62
2021/01/28 10:41:47;;;;;;;39.10;19.63;;;;;;;;;;5070647;28;20020;-61
2021/01/28 10:44:12;;;;;;;40.17;19.48;;;;;;;;;;5072014;28;20103;-61
2021/01/28 10:46:37;;;;;;;48.53;20.55;;;;;;;;;;5071816;28;20141;-61
2021/01/28 10:49:03;;;;;;;57.10;23.73;;;;;;;;;;5053623;28;20032;-61
2021/01/28 10:51:29;;;;;;;65.28;26.98;;;;;;;;;;5071931;28;20028;-61
2021/01/28 10:53:54;;;;;;;45.28;23.05;;;;;;;;;;5071858;28;20086;-61
2021/01/28 10:56:19;;;;;;;55.60;24.50;;;;;;;;;;5053687;28;20032;-61
2021/01/28 10:58:45;;;;;;;50.75;22.00;;;;;;;;;;5071341;28;20027;-61
2021/01/28 11:01:10;;;;;;;50.60;21.13;;;;;;;;;;5054111;28;20024;-62
2021/01/28 11:03:37;;;;;;;40.80;19.85;;;;;;;;;;5069062;28;20024;-63
2021/01/28 11:06:03;;;;;;;46.75;21.23;;;;;;;;;;5069266;28;20046;-61
2021/01/28 11:08:28;;;;;;;53.90;22.23;;;;;;;;;;5041494;28;20038;-62
2021/01/28 11:10:54;;;;;;;48.03;20.55;;;;;;;;;;5059544;28;20430;-62
2021/01/28 11:13:20;;;;;;;42.75;20.33;;;;;;;;;;5043441;28;20599;-61
2021/01/28 11:15:45;;;;;;;48.50;21.42;;;;;;;;;;5065069;28;20108;-62
2021/01/28 11:18:11;;;;;;;39.10;19.75;;;;;;;;;;5044566;28;20076;-63
2021/01/28 11:20:36;;;;;;;46.38;20.90;;;;;;;;;;5071284;28;20032;-61
2021/01/28 11:23:02;;;;;;;48.85;17.80;;;;;;;;;;5055170;28;20032;-61
2021/01/28 11:25:28;;;;;;;44.75;16.75;;;;;;;;;;5051114;28;20032;-60
2021/01/28 11:27:54;;;;;;;57.28;20.98;;;;;;;;;;5080385;28;20454;-60
2021/01/28 11:30:21;;;;;;;46.08;18.50;;;;;;;;;;5054327;28;20020;-62
2021/01/28 11:32:46;;;;;;;36.85;16.70;;;;;;;;;;5060980;28;20016;-63
2021/01/28 11:35:12;;;;;;;28.00;14.57;;;;;;;;;;5076425;28;20012;-59
2021/01/28 11:37:38;;;;;;;26.02;13.13;;;;;;;;;;5075183;28;20605;-60
2021/01/28 11:40:04;;;;;;;30.65;14.88;;;;;;;;;;5044723;28;20029;-61
2021/01/28 11:42:30;;;;;;;27.90;13.50;;;;;;;;;;5067044;28;20525;-60
2021/01/28 11:44:55;;;;;;;31.67;14.15;;;;;;;;;;5064965;28;20105;-60
2021/01/28 11:47:24;;;;;;;34.42;13.95;;;;;;;;;;5074190;28;20021;-63
2021/01/28 11:49:49;;;;;;;25.27;13.00;;;;;;;;;;5071976;28;20086;-61
2021/01/28 11:52:15;;;;;;;28.88;12.60;;;;;;;;;;5065017;28;20257;-61
2021/01/28 11:54:40;;;;;;;24.83;13.63;;;;;;;;;;5056588;28;20066;-61
2021/01/28 11:57:06;;;;;;;23.70;13.02;;;;;;;;;;5075395;28;20033;-62
2021/01/28 11:59:32;;;;;;;23.73;12.57;;;;;;;;;;5058375;28;20388;-62
2021/01/28 12:01:58;;;;;;;26.20;12.00;;;;;;;;;;5051138;28;20036;-61
2021/01/28 12:04:23;;;;;;;26.20;12.95;;;;;;;;;;5073499;28;20479;-61
2021/01/28 12:06:50;;;;;;;36.78;12.27;;;;;;;;;;5084620;28;20102;-61
2021/01/28 12:09:15;;;;;;;21.70;11.90;;;;;;;;;;5067265;28;20044;-62
2021/01/28 12:11:41;;;;;;;21.13;11.82;;;;;;;;;;5035070;28;20466;-62
2021/01/28 12:14:06;;;;;;;33.53;12.27;;;;;;;;;;5061804;28;20044;-63
2021/01/28 12:16:32;;;;;;;27.50;11.50;;;;;;;;;;5063415;28;20025;-63
2021/01/28 12:18:57;;;;;;;28.73;13.32;;;;;;;;;;5056317;28;20132;-63
2021/01/28 12:21:23;;;;;;;31.58;13.80;;;;;;;;;;5067941;28;20020;-63
2021/01/28 12:23:49;;;;;;;60.28;14.13;;;;;;;;;;5075892;28;20024;-62
2021/01/28 12:26:14;;;;;;;27.55;13.32;;;;;;;;;;5070343;28;20372;-63
2021/01/28 12:28:40;;;;;;;29.67;12.75;;;;;;;;;;5073504;28;20082;-63
2021/01/28 12:31:05;;;;;;;24.67;12.05;;;;;;;;;;5044294;28;20025;-64
2021/01/28 12:33:31;;;;;;;32.25;13.32;;;;;;;;;;5072830;28;20016;-60
2021/01/28 12:35:57;;;;;;;31.42;11.60;;;;;;;;;;5084914;28;20024;-62
2021/01/28 12:38:23;;;;;;;23.73;12.55;;;;;;;;;;5086359;28;20100;-66
2021/01/28 12:40:48;;;;;;;34.50;13.55;;;;;;;;;;5069376;28;20070;-63
2021/01/28 12:43:14;;;;;;;25.85;12.55;;;;;;;;;;5075590;28;20051;-61
2021/01/28 12:45:39;;;;;;;26.13;11.75;;;;;;;;;;5063374;28;20040;-62
2021/01/28 12:48:05;;;;;;;29.95;11.98;;;;;;;;;;5073727;28;20385;-62
2021/01/28 12:50:30;;;;;;;34.80;13.23;;;;;;;;;;5079611;28;20498;-69
2021/01/28 12:52:56;;;;;;;24.65;13.07;;;;;;;;;;5047317;28;20020;-68
2021/01/28 12:55:22;;;;;;;27.55;12.57;;;;;;;;;;5064786;28;20148;-68
2021/01/28 12:57:48;;;;;;;24.02;12.55;;;;;;;;;;5040870;28;20059;-69
2021/01/28 13:00:15;;;;;;;25.85;11.13;;;;;;;;;;5063312;28;20033;-67
2021/01/28 13:02:41;;;;;;;20.80;12.00;;;;;;;;;;5048694;28;20082;-66
2021/01/28 13:05:07;;;;;;;35.90;11.25;;;;;;;;;;5059611;28;20036;-70
2021/01/28 13:07:32;;;;;;;23.65;12.00;;;;;;;;;;5044352;28;20397;-67
2021/01/28 13:09:57;;;;;;;19.73;10.15;;;;;;;;;;5057896;28;20025;-69
2021/01/28 13:12:23;;;;;;;21.13;11.18;;;;;;;;;;5059307;28;20136;-67
2021/01/28 13:14:49;;;;;;;25.67;12.13;;;;;;;;;;5058116;28;20027;-68
2021/01/28 13:17:14;;;;;;;21.83;10.60;;;;;;;;;;5061524;28;20103;-68
2021/01/28 13:19:40;;;;;;;25.25;10.30;;;;;;;;;;5068296;28;20028;-68
2021/01/28 13:22:05;;;;;;;20.75;10.00;;;;;;;;;;5079747;28;20028;-69
2021/01/28 13:24:30;;;;;;;19.92;9.30;;;;;;;;;;5065601;28;20031;-71
2021/01/28 13:26:56;;;;;;;23.15;9.48;;;;;;;;;;5039271;28;20124;-72
2021/01/28 13:29:21;;;;;;;17.65;9.00;;;;;;;;;;5051358;28;20023;-73
2021/01/28 13:31:47;;;;;;;21.92;8.65;;;;;;;;;;5065210;28;20012;-71
2021/01/28 13:34:12;;;;;;;29.80;14.32;;;;;;;;;;5053979;28;20044;-68
2021/01/28 13:36:38;;;;;;;22.60;10.35;;;;;;;;;;5049530;28;20040;-71
2021/01/28 13:39:04;;;;;;;17.40;10.32;;;;;;;;;;5059597;28;20464;-71
2021/01/28 13:41:30;;;;;;;19.83;9.80;;;;;;;;;;5324219;23;20095;-71
2021/01/28 13:43:56;;;;;;;30.13;10.95;;;;;;;;;;5001909;28;20398;-74
2021/01/28 13:46:22;;;;;;;40.10;18.92;;;;;;;;;;5017970;28;20030;-73
2021/01/28 13:48:48;;;;;;;61.08;20.80;;;;;;;;;;5009397;28;20029;-73
2021/01/28 13:51:20;;;;;;;22.27;10.50;;;;;;;;;;5003560;28;20026;-75
2021/01/28 13:53:46;;;;;;;17.98;10.65;;;;;;;;;;5024421;28;20474;-76
2021/01/28 13:56:12;;;;;;;22.95;11.88;;;;;;;;;;5020939;28;20018;-75
2021/01/28 13:58:38;;;;;;;20.80;10.30;;;;;;;;;;5021396;28;20025;-74
2021/01/28 14:01:03;;;;;;;21.25;10.30;;;;;;;;;;5012910;28;20471;-72
2021/01/28 14:03:29;;;;;;;16.08;8.85;;;;;;;;;;5015073;28;20050;-71
2021/01/28 14:05:54;;;;;;;27.33;11.05;;;;;;;;;;4982217;28;20526;-74
2021/01/28 14:08:20;;;;;;;18.92;9.18;;;;;;;;;;5014024;28;20034;-75
2021/01/28 14:10:45;;;;;;;18.33;9.27;;;;;;;;;;4977743;28;20022;-73
2021/01/28 14:13:11;;;;;;;18.35;9.07;;;;;;;;;;5016593;28;20029;-69
2021/01/28 14:15:38;;;;;;;148.73;14.98;;;;;;;;;;5008811;28;20048;-70
2021/01/28 14:18:04;;;;;;;16.75;8.98;;;;;;;;;;4998015;28;20403;-72
2021/01/28 14:20:29;;;;;;;16.20;9.32;;;;;;;;;;5016912;28;20018;-72
2021/01/28 14:22:56;;;;;;;20.00;9.45;;;;;;;;;;5009568;28;20026;-73
2021/01/28 14:25:23;;;;;;;17.33;9.02;;;;;;;;;;5027074;28;20029;-72
2021/01/28 14:27:49;;;;;;;16.70;9.45;;;;;;;;;;5007916;28;20029;-72
2021/01/28 14:30:16;;;;;;;21.70;9.65;;;;;;;;;;5000797;28;20076;-73
2021/01/28 14:32:42;;;;;;;21.25;10.35;;;;;;;;;;5000173;28;20026;-64
2021/01/28 14:35:08;;;;;;;27.30;10.38;;;;;;;;;;5005961;28;20022;-67
2021/01/28 14:37:34;;;;;;;21.50;10.02;;;;;;;;;;5015144;28;20104;-67
2021/01/28 14:39:59;;;;;;;19.98;10.15;;;;;;;;;;5018046;28;20060;-67
2021/01/28 14:42:25;;;;;;;25.80;11.80;;;;;;;;;;5018398;28;20057;-69
2021/01/28 14:44:50;;;;;;;39.90;19.40;;;;;;;;;;5016146;28;20495;-64
2021/01/28 14:47:17;;;;;;;33.28;16.73;;;;;;;;;;5008378;28;20090;-67
2021/01/28 14:49:42;;;;;;;34.75;14.52;;;;;;;;;;5007308;28;20382;-68
2021/01/28 14:52:08;;;;;;;27.05;11.95;;;;;;;;;;5012076;28;20095;-67
2021/01/28 14:54:34;;;;;;;24.65;11.18;;;;;;;;;;5010882;28;20029;-67
2021/01/28 14:56:59;;;;;;;27.55;11.27;;;;;;;;;;5011701;28;20018;-67
2021/01/28 14:59:24;;;;;;;31.10;14.50;;;;;;;;;;5006610;28;20413;-67
2021/01/28 15:01:50;;;;;;;27.92;13.27;;;;;;;;;;5028503;28;20057;-67
2021/01/28 15:04:15;;;;;;;27.70;13.85;;;;;;;;;;5016816;28;20096;-69
2021/01/28 15:06:42;;;;;;;45.45;17.60;;;;;;;;;;5028901;28;20378;-68
2021/01/28 15:09:08;;;;;;;39.97;17.73;;;;;;;;;;5016256;28;20045;-68
2021/01/28 15:11:33;;;;;;;35.42;15.02;;;;;;;;;;5029643;28;20383;-69
2021/01/28 15:14:00;;;;;;;51.85;18.55;;;;;;;;;;5023459;28;20021;-70
2021/01/28 15:16:26;;;;;;;44.15;17.90;;;;;;;;;;5003163;28;20474;-69
2021/01/28 15:18:51;;;;;;;54.90;19.95;;;;;;;;;;5030126;28;20117;-66
2021/01/28 15:21:17;;;;;;;61.15;22.75;;;;;;;;;;5015391;28;20029;-68
2021/01/28 15:23:43;;;;;;;48.30;20.88;;;;;;;;;;5001362;28;20049;-68
2021/01/28 15:26:08;;;;;;;48.58;19.95;;;;;;;;;;5001975;28;20101;-67
2021/01/28 15:28:34;;;;;;;39.83;18.88;;;;;;;;;;4993345;28;20052;-67
2021/01/28 15:31:00;;;;;;;38.92;17.00;;;;;;;;;;5016888;28;20044;-66
2021/01/28 15:33:25;;;;;;;32.90;15.40;;;;;;;;;;5037133;28;20033;-68
2021/01/28 15:35:52;;;;;;;34.67;15.20;;;;;;;;;;5027403;28;20033;-67
2021/01/28 15:38:18;;;;;;;37.55;17.35;;;;;;;;;;5016014;28;20026;-68
2021/01/28 15:40:43;;;;;;;47.38;16.33;;;;;;;;;;5015162;28;20042;-69
2021/01/28 15:43:09;;;;;;;44.40;17.95;;;;;;;;;;5031646;28;20018;-69
2021/01/28 15:45:35;;;;;;;36.33;16.58;;;;;;;;;;5018911;28;20466;-70
2021/01/28 15:48:01;;;;;;;39.25;18.85;;;;;;;;;;5026296;28;20394;-66
2021/01/28 15:50:26;;;;;;;33.38;16.08;;;;;;;;;;5026849;28;20029;-66
2021/01/28 15:52:51;;;;;;;33.78;16.60;;;;;;;;;;5019130;28;20048;-69
2021/01/28 15:55:17;;;;;;;37.67;18.20;;;;;;;;;;5031275;28;20025;-69
2021/01/28 15:57:43;;;;;;;41.63;18.33;;;;;;;;;;5003186;28;20029;-69
2021/01/28 16:00:09;;;;;;;38.80;17.38;;;;;;;;;;5024755;28;20414;-65
2021/01/28 16:02:35;;;;;;;38.90;18.90;;;;;;;;;;5027605;28;20025;-68
2021/01/28 16:05:00;;;;;;;49.80;21.58;;;;;;;;;;5016262;28;20025;-66
2021/01/28 16:07:26;;;;;;;41.40;19.00;;;;;;;;;;5030443;28;20075;-71
2021/01/28 16:09:51;;;;;;;37.30;17.65;;;;;;;;;;5020673;28;20096;-68
2021/01/28 16:12:18;;;;;;;36.70;18.98;;;;;;;;;;5022992;28;20029;-68
2021/01/28 16:14:43;;;;;;;37.72;17.45;;;;;;;;;;5028130;28;20029;-69
2021/01/28 16:17:10;;;;;;;31.02;17.45;;;;;;;;;;5017404;28;20044;-68
2021/01/28 16:19:36;;;;;;;33.42;17.45;;;;;;;;;;5029054;28;20101;-70
2021/01/28 16:22:02;;;;;;;33.67;16.58;;;;;;;;;;5005265;28;20025;-66
2021/01/28 16:24:28;;;;;;;35.90;18.50;;;;;;;;;;5021757;28;20026;-67
2021/01/28 16:26:55;;;;;;;43.47;22.13;;;;;;;;;;5029182;28;20386;-67
2021/01/28 16:29:20;;;;;;;60.38;26.52;;;;;;;;;;5017089;28;20112;-68
2021/01/28 16:31:46;;;;;;;46.20;21.20;;;;;;;;;;5027197;28;20096;-69
2021/01/28 16:34:11;;;;;;;54.78;23.35;;;;;;;;;;5023650;28;20116;-70
2021/01/28 16:36:37;;;;;;;44.80;22.38;;;;;;;;;;5002757;28;20022;-68
2021/01/28 16:39:04;;;;;;;48.30;23.70;;;;;;;;;;5012110;28;20022;-68
2021/01/28 16:41:35;;;;;;;41.78;21.00;;;;;;;;;;5016884;28;20038;-69
2021/01/28 16:44:00;;;;;;;55.83;24.92;;;;;;;;;;5007627;28;20018;-68
2021/01/28 16:46:26;;;;;;;43.47;22.60;;;;;;;;;;5025200;28;20029;-69
2021/01/28 16:48:51;;;;;;;57.63;26.08;;;;;;;;;;4999994;28;20018;-68
2021/01/28 16:51:17;;;;;;;57.10;26.70;;;;;;;;;;5029834;28;20045;-67
2021/01/28 16:53:42;;;;;;;55.00;25.85;;;;;;;;;;5019383;28;20092;-70
2021/01/28 16:56:08;;;;;;;55.55;25.33;;;;;;;;;;5023630;28;20018;-68
2021/01/28 16:58:34;;;;;;;43.15;19.83;;;;;;;;;;5026469;28;20032;-67
2021/01/28 17:00:59;;;;;;;45.03;20.75;;;;;;;;;;4995687;28;20332;-66
2021/01/28 17:03:24;;;;;;;42.65;20.45;;;;;;;;;;5029344;28;20072;-65
2021/01/28 17:05:50;;;;;;;38.20;19.83;;;;;;;;;;5020384;28;20021;-66
2021/01/28 17:08:16;;;;;;;44.08;21.27;;;;;;;;;;5022044;28;20026;-66
2021/01/28 17:10:42;;;;;;;45.38;21.20;;;;;;;;;;5026691;28;20444;-72
2021/01/28 17:13:08;;;;;;;49.28;24.27;;;;;;;;;;5016183;28;20037;-70
2021/01/28 17:15:34;;;;;;;43.03;22.83;;;;;;;;;;5015545;28;20029;-70
